sensor_id;sensor_type;location;lat;lon;timestamp;temperature;humidity
82506;SHT30;72144;51.444;10.560;2023-08-24T00:00:38;21.22;52.40
82506;SHT30;72144;51.444;10.560;2023-08-24T00:03:03;21.18;52.46
82506;SHT30;72144;51.444;10.560;2023-08-24T00:05:29;21.11;52.48
82506;SHT30;72144;51.444;10.560;2023-08-24T00:07:54;21.06;52.70
82506;SHT30;72144;51.444;10.560;2023-08-24T00:10:20;21.04;52.85
82506;SHT30;72144;51.444;10.560;2023-08-24T00:12:45;21.01;52.90
82506;SHT30;72144;51.444;10.560;2023-08-24T00:15:10;20.98;52.97
82506;SHT30;72144;51.444;10.560;2023-08-24T00:17:37;20.95;52.82
82506;SHT30;72144;51.444;10.560;2023-08-24T00:20:05;20.92;52.76
82506;SHT30;72144;51.444;10.560;2023-08-24T00:22:32;20.90;52.93
82506;SHT30;72144;51.444;10.560;2023-08-24T00:24:58;20.85;53.00
82506;SHT30;72144;51.444;10.560;2023-08-24T00:27:23;20.80;52.87
82506;SHT30;72144;51.444;10.560;2023-08-24T00:29:49;20.77;52.89
82506;SHT30;72144;51.444;10.560;2023-08-24T00:32:14;20.73;52.88
82506;SHT30;72144;51.444;10.560;2023-08-24T00:34:40;20.70;53.07
82506;SHT30;72144;51.444;10.560;2023-08-24T00:37:05;20.66;53.23
82506;SHT30;72144;51.444;10.560;2023-08-24T00:39:30;20.63;53.19
82506;SHT30;72144;51.444;10.560;2023-08-24T00:41:56;20.61;53.39
82506;SHT30;72144;51.444;10.560;2023-08-24T00:44:22;20.57;53.33
82506;SHT30;72144;51.444;10.560;2023-08-24T00:46:47;20.53;53.43
82506;SHT30;72144;51.444;10.560;2023-08-24T00:49:12;20.49;53.83
82506;SHT30;72144;51.444;10.560;2023-08-24T00:51:38;20.49;53.67
82506;SHT30;72144;51.444;10.560;2023-08-24T00:54:05;20.43;53.90
82506;SHT30;72144;51.444;10.560;2023-08-24T00:56:30;20.40;53.79
82506;SHT30;72144;51.444;10.560;2023-08-24T00:58:56;20.39;53.66
82506;SHT30;72144;51.444;10.560;2023-08-24T01:01:22;20.36;53.58
82506;SHT30;72144;51.444;10.560;2023-08-24T01:03:47;20.33;53.54
82506;SHT30;72144;51.444;10.560;2023-08-24T01:06:12;20.29;53.51
82506;SHT30;72144;51.444;10.560;2023-08-24T01:08:38;20.22;53.62
82506;SHT30;72144;51.444;10.560;2023-08-24T01:16:41;20.12;53.52
82506;SHT30;72144;51.444;10.560;2023-08-24T01:19:25;20.09;53.82
82506;SHT30;72144;51.444;10.560;2023-08-24T01:21:54;20.08;53.41
82506;SHT30;72144;51.444;10.560;2023-08-24T01:24:34;20.02;53.56
82506;SHT30;72144;51.444;10.560;2023-08-24T01:27:01;19.99;53.32
82506;SHT30;72144;51.444;10.560;2023-08-24T01:29:27;19.92;53.38
82506;SHT30;72144;51.444;10.560;2023-08-24T01:31:53;19.90;53.34
82506;SHT30;72144;51.444;10.560;2023-08-24T01:34:18;19.85;53.41
82506;SHT30;72144;51.444;10.560;2023-08-24T01:36:44;19.84;53.28
82506;SHT30;72144;51.444;10.560;2023-08-24T01:39:14;19.77;53.41
82506;SHT30;72144;51.444;10.560;2023-08-24T01:41:46;19.74;53.50
82506;SHT30;72144;51.444;10.560;2023-08-24T01:44:18;19.69;53.60
82506;SHT30;72144;51.444;10.560;2023-08-24T01:46:46;19.67;53.70
82506;SHT30;72144;51.444;10.560;2023-08-24T01:49:14;19.63;53.74
82506;SHT30;72144;51.444;10.560;2023-08-24T01:51:40;19.62;53.90
82506;SHT30;72144;51.444;10.560;2023-08-24T01:54:07;19.57;53.99
82506;SHT30;72144;51.444;10.560;2023-08-24T01:56:32;19.54;54.04
82506;SHT30;72144;51.444;10.560;2023-08-24T01:58:57;19.50;54.23
82506;SHT30;72144;51.444;10.560;2023-08-24T02:01:23;19.46;54.34
82506;SHT30;72144;51.444;10.560;2023-08-24T02:03:48;19.45;54.37
82506;SHT30;72144;51.444;10.560;2023-08-24T02:06:13;19.40;54.28
82506;SHT30;72144;51.444;10.560;2023-08-24T02:08:39;19.36;54.50
82506;SHT30;72144;51.444;10.560;2023-08-24T02:11:07;19.35;54.60
82506;SHT30;72144;51.444;10.560;2023-08-24T02:13:32;19.33;54.75
82506;SHT30;72144;51.444;10.560;2023-08-24T02:16:08;19.28;55.00
82506;SHT30;72144;51.444;10.560;2023-08-24T02:18:37;19.23;54.99
82506;SHT30;72144;51.444;10.560;2023-08-24T02:21:09;19.23;54.99
82506;SHT30;72144;51.444;10.560;2023-08-24T02:23:36;19.20;54.82
82506;SHT30;72144;51.444;10.560;2023-08-24T02:26:02;19.16;54.84
82506;SHT30;72144;51.444;10.560;2023-08-24T02:28:28;19.15;54.96
82506;SHT30;72144;51.444;10.560;2023-08-24T02:30:53;19.12;55.02
82506;SHT30;72144;51.444;10.560;2023-08-24T02:33:19;19.12;55.13
82506;SHT30;72144;51.444;10.560;2023-08-24T02:35:47;19.09;55.12
82506;SHT30;72144;51.444;10.560;2023-08-24T02:38:12;19.08;55.05
82506;SHT30;72144;51.444;10.560;2023-08-24T02:40:38;19.05;55.34
82506;SHT30;72144;51.444;10.560;2023-08-24T02:43:03;19.05;55.18
82506;SHT30;72144;51.444;10.560;2023-08-24T02:45:28;19.01;55.27
82506;SHT30;72144;51.444;10.560;2023-08-24T02:47:54;18.98;55.35
82506;SHT30;72144;51.444;10.560;2023-08-24T02:50:19;18.94;55.33
82506;SHT30;72144;51.444;10.560;2023-08-24T02:52:45;18.94;55.30
82506;SHT30;72144;51.444;10.560;2023-08-24T02:55:11;18.92;55.40
82506;SHT30;72144;51.444;10.560;2023-08-24T02:57:36;18.87;55.52
82506;SHT30;72144;51.444;10.560;2023-08-24T03:00:03;18.85;55.61
82506;SHT30;72144;51.444;10.560;2023-08-24T03:02:28;18.83;55.74
82506;SHT30;72144;51.444;10.560;2023-08-24T03:04:54;18.80;55.79
82506;SHT30;72144;51.444;10.560;2023-08-24T03:07:20;18.75;55.92
82506;SHT30;72144;51.444;10.560;2023-08-24T03:09:46;18.75;56.13
82506;SHT30;72144;51.444;10.560;2023-08-24T03:12:11;18.71;56.37
82506;SHT30;72144;51.444;10.560;2023-08-24T03:14:37;18.73;56.32
82506;SHT30;72144;51.444;10.560;2023-08-24T03:17:03;18.71;56.34
82506;SHT30;72144;51.444;10.560;2023-08-24T03:19:29;18.70;56.22
82506;SHT30;72144;51.444;10.560;2023-08-24T03:21:55;18.67;56.26
82506;SHT30;72144;51.444;10.560;2023-08-24T03:24:20;18.66;56.37
82506;SHT30;72144;51.444;10.560;2023-08-24T03:26:46;18.64;56.34
82506;SHT30;72144;51.444;10.560;2023-08-24T03:29:11;18.61;56.25
82506;SHT30;72144;51.444;10.560;2023-08-24T03:31:36;18.60;56.28
82506;SHT30;72144;51.444;10.560;2023-08-24T03:34:02;18.56;56.33
82506;SHT30;72144;51.444;10.560;2023-08-24T03:36:29;18.52;56.34
82506;SHT30;72144;51.444;10.560;2023-08-24T03:38:54;18.52;56.32
82506;SHT30;72144;51.444;10.560;2023-08-24T03:41:20;18.46;56.27
82506;SHT30;72144;51.444;10.560;2023-08-24T03:43:45;18.45;56.29
82506;SHT30;72144;51.444;10.560;2023-08-24T03:46:10;18.40;56.37
82506;SHT30;72144;51.444;10.560;2023-08-24T03:48:36;18.35;56.41
82506;SHT30;72144;51.444;10.560;2023-08-24T03:51:01;18.33;56.42
82506;SHT30;72144;51.444;10.560;2023-08-24T03:53:26;18.31;56.45
82506;SHT30;72144;51.444;10.560;2023-08-24T03:55:52;18.29;56.47
82506;SHT30;72144;51.444;10.560;2023-08-24T03:58:18;18.26;56.50
82506;SHT30;72144;51.444;10.560;2023-08-24T04:00:46;18.21;56.50
82506;SHT30;72144;51.444;10.560;2023-08-24T04:03:12;18.19;56.49
82506;SHT30;72144;51.444;10.560;2023-08-24T04:05:37;18.15;56.45
82506;SHT30;72144;51.444;10.560;2023-08-24T04:08:03;18.16;56.44
82506;SHT30;72144;51.444;10.560;2023-08-24T04:10:29;18.12;56.45
82506;SHT30;72144;51.444;10.560;2023-08-24T04:12:55;18.06;56.51
82506;SHT30;72144;51.444;10.560;2023-08-24T04:15:20;18.04;56.47
82506;SHT30;72144;51.444;10.560;2023-08-24T04:17:46;18.01;56.58
82506;SHT30;72144;51.444;10.560;2023-08-24T04:20:11;18.01;56.61
82506;SHT30;72144;51.444;10.560;2023-08-24T04:22:37;17.94;56.63
82506;SHT30;72144;51.444;10.560;2023-08-24T04:25:03;17.94;56.64
82506;SHT30;72144;51.444;10.560;2023-08-24T04:27:28;17.93;56.64
82506;SHT30;72144;51.444;10.560;2023-08-24T04:29:54;17.88;56.75
82506;SHT30;72144;51.444;10.560;2023-08-24T04:32:19;17.87;56.71
82506;SHT30;72144;51.444;10.560;2023-08-24T04:34:45;17.84;56.79
82506;SHT30;72144;51.444;10.560;2023-08-24T04:37:10;17.80;56.91
82506;SHT30;72144;51.444;10.560;2023-08-24T04:39:36;17.78;56.96
82506;SHT30;72144;51.444;10.560;2023-08-24T04:42:02;17.78;57.01
82506;SHT30;72144;51.444;10.560;2023-08-24T04:44:28;17.78;57.01
82506;SHT30;72144;51.444;10.560;2023-08-24T04:46:53;17.74;57.10
82506;SHT30;72144;51.444;10.560;2023-08-24T04:49:18;17.73;57.11
82506;SHT30;72144;51.444;10.560;2023-08-24T04:51:44;17.70;57.15
82506;SHT30;72144;51.444;10.560;2023-08-24T04:54:09;17.67;57.25
82506;SHT30;72144;51.444;10.560;2023-08-24T04:56:35;17.67;57.24
82506;SHT30;72144;51.444;10.560;2023-08-24T04:59:00;17.62;57.31
82506;SHT30;72144;51.444;10.560;2023-08-24T05:01:27;17.59;57.40
82506;SHT30;72144;51.444;10.560;2023-08-24T05:03:53;17.60;57.47
82506;SHT30;72144;51.444;10.560;2023-08-24T05:06:22;17.59;57.52
82506;SHT30;72144;51.444;10.560;2023-08-24T05:08:47;17.54;57.56
82506;SHT30;72144;51.444;10.560;2023-08-24T05:11:17;17.54;57.63
82506;SHT30;72144;51.444;10.560;2023-08-24T05:13:43;17.54;57.71
82506;SHT30;72144;51.444;10.560;2023-08-24T05:16:10;17.52;57.87
82506;SHT30;72144;51.444;10.560;2023-08-24T05:18:35;17.47;57.92
82506;SHT30;72144;51.444;10.560;2023-08-24T05:21:04;17.49;58.01
82506;SHT30;72144;51.444;10.560;2023-08-24T05:23:31;17.47;58.16
82506;SHT30;72144;51.444;10.560;2023-08-24T05:25:57;17.47;58.29
82506;SHT30;72144;51.444;10.560;2023-08-24T05:28:24;17.46;58.44
82506;SHT30;72144;51.444;10.560;2023-08-24T05:30:51;17.46;58.61
82506;SHT30;72144;51.444;10.560;2023-08-24T05:33:17;17.46;58.63
82506;SHT30;72144;51.444;10.560;2023-08-24T05:35:42;17.47;58.75
82506;SHT30;72144;51.444;10.560;2023-08-24T05:38:08;17.47;58.82
82506;SHT30;72144;51.444;10.560;2023-08-24T05:40:33;17.46;59.04
82506;SHT30;72144;51.444;10.560;2023-08-24T05:42:59;17.46;59.13
82506;SHT30;72144;51.444;10.560;2023-08-24T05:45:24;17.49;59.25
82506;SHT30;72144;51.444;10.560;2023-08-24T05:47:50;17.46;59.29
82506;SHT30;72144;51.444;10.560;2023-08-24T05:50:15;17.45;59.49
82506;SHT30;72144;51.444;10.560;2023-08-24T05:52:41;17.50;59.54
82506;SHT30;72144;51.444;10.560;2023-08-24T05:55:06;17.49;59.76
82506;SHT30;72144;51.444;10.560;2023-08-24T05:57:32;17.50;59.80
82506;SHT30;72144;51.444;10.560;2023-08-24T05:59:57;17.53;59.89
82506;SHT30;72144;51.444;10.560;2023-08-24T06:02:22;17.54;60.13
82506;SHT30;72144;51.444;10.560;2023-08-24T06:04:48;17.54;60.19
82506;SHT30;72144;51.444;10.560;2023-08-24T06:07:16;17.56;60.35
82506;SHT30;72144;51.444;10.560;2023-08-24T06:09:42;17.59;60.48
82506;SHT30;72144;51.444;10.560;2023-08-24T06:12:07;17.60;60.77
82506;SHT30;72144;51.444;10.560;2023-08-24T06:14:33;17.63;60.90
82506;SHT30;72144;51.444;10.560;2023-08-24T06:16:58;17.67;61.10
82506;SHT30;72144;51.444;10.560;2023-08-24T06:19:23;17.69;61.45
82506;SHT30;72144;51.444;10.560;2023-08-24T06:21:49;17.73;61.60
82506;SHT30;72144;51.444;10.560;2023-08-24T06:24:14;17.76;62.24
82506;SHT30;72144;51.444;10.560;2023-08-24T06:26:40;17.78;62.35
82506;SHT30;72144;51.444;10.560;2023-08-24T06:29:05;17.78;62.65
82506;SHT30;72144;51.444;10.560;2023-08-24T06:31:31;17.83;63.21
82506;SHT30;72144;51.444;10.560;2023-08-24T06:33:58;17.87;64.17
82506;SHT30;72144;51.444;10.560;2023-08-24T06:36:23;17.93;64.08
82506;SHT30;72144;51.444;10.560;2023-08-24T06:38:49;17.98;64.33
82506;SHT30;72144;51.444;10.560;2023-08-24T06:41:14;18.02;64.63
82506;SHT30;72144;51.444;10.560;2023-08-24T06:43:39;18.11;64.56
82506;SHT30;72144;51.444;10.560;2023-08-24T06:46:05;18.15;64.67
82506;SHT30;72144;51.444;10.560;2023-08-24T06:48:35;18.22;64.88
82506;SHT30;72144;51.444;10.560;2023-08-24T06:51:00;18.29;65.35
82506;SHT30;72144;51.444;10.560;2023-08-24T06:53:26;18.33;65.36
82506;SHT30;72144;51.444;10.560;2023-08-24T06:55:57;18.40;66.04
82506;SHT30;72144;51.444;10.560;2023-08-24T06:58:23;18.50;65.77
82506;SHT30;72144;51.444;10.560;2023-08-24T07:00:48;18.57;66.10
82506;SHT30;72144;51.444;10.560;2023-08-24T07:03:17;18.61;66.35
82506;SHT30;72144;51.444;10.560;2023-08-24T07:05:43;18.68;66.36
82506;SHT30;72144;51.444;10.560;2023-08-24T07:08:08;18.75;66.70
82506;SHT30;72144;51.444;10.560;2023-08-24T07:10:34;18.80;66.34
82506;SHT30;72144;51.444;10.560;2023-08-24T07:12:59;18.87;66.34
82506;SHT30;72144;51.444;10.560;2023-08-24T07:15:24;18.94;66.16
82506;SHT30;72144;51.444;10.560;2023-08-24T07:17:50;18.98;65.70
82506;SHT30;72144;51.444;10.560;2023-08-24T07:20:15;19.05;65.64
82506;SHT30;72144;51.444;10.560;2023-08-24T07:22:41;19.09;65.55
82506;SHT30;72144;51.444;10.560;2023-08-24T07:25:08;19.15;65.30
82506;SHT30;72144;51.444;10.560;2023-08-24T07:27:34;19.25;65.20
82506;SHT30;72144;51.444;10.560;2023-08-24T07:30:00;19.30;64.67
82506;SHT30;72144;51.444;10.560;2023-08-24T07:32:26;19.36;64.80
82506;SHT30;72144;51.444;10.560;2023-08-24T07:34:52;19.46;64.41
82506;SHT30;72144;51.444;10.560;2023-08-24T07:37:18;19.49;64.62
82506;SHT30;72144;51.444;10.560;2023-08-24T07:39:43;19.56;64.36
82506;SHT30;72144;51.444;10.560;2023-08-24T07:42:09;19.60;64.21
82506;SHT30;72144;51.444;10.560;2023-08-24T07:44:34;19.67;63.87
82506;SHT30;72144;51.444;10.560;2023-08-24T07:47:01;19.75;63.75
82506;SHT30;72144;51.444;10.560;2023-08-24T07:49:26;19.81;63.60
82506;SHT30;72144;51.444;10.560;2023-08-24T07:51:52;19.85;63.47
82506;SHT30;72144;51.444;10.560;2023-08-24T07:54:18;19.94;63.47
82506;SHT30;72144;51.444;10.560;2023-08-24T07:56:43;19.98;63.45
82506;SHT30;72144;51.444;10.560;2023-08-24T07:59:09;20.07;63.03
82506;SHT30;72144;51.444;10.560;2023-08-24T08:01:34;20.11;63.16
82506;SHT30;72144;51.444;10.560;2023-08-24T08:03:59;20.18;63.00
82506;SHT30;72144;51.444;10.560;2023-08-24T08:06:25;20.21;62.95
82506;SHT30;72144;51.444;10.560;2023-08-24T08:08:52;20.26;62.87
82506;SHT30;72144;51.444;10.560;2023-08-24T08:11:17;20.32;62.91
82506;SHT30;72144;51.444;10.560;2023-08-24T08:13:43;20.36;62.83
82506;SHT30;72144;51.444;10.560;2023-08-24T08:16:09;20.39;62.55
82506;SHT30;72144;51.444;10.560;2023-08-24T08:18:36;20.44;62.84
82506;SHT30;72144;51.444;10.560;2023-08-24T08:21:15;20.50;63.17
82506;SHT30;72144;51.444;10.560;2023-08-24T08:23:43;20.56;62.26
82506;SHT30;72144;51.444;10.560;2023-08-24T08:26:10;20.59;62.32
82506;SHT30;72144;51.444;10.560;2023-08-24T08:28:36;20.63;62.28
82506;SHT30;72144;51.444;10.560;2023-08-24T08:31:01;20.68;62.15
82506;SHT30;72144;51.444;10.560;2023-08-24T08:33:28;20.74;62.19
82506;SHT30;72144;51.444;10.560;2023-08-24T08:35:53;20.76;61.80
82506;SHT30;72144;51.444;10.560;2023-08-24T08:38:18;20.83;61.85
82506;SHT30;72144;51.444;10.560;2023-08-24T08:40:49;20.87;62.36
82506;SHT30;72144;51.444;10.560;2023-08-24T08:43:15;20.91;62.02
82506;SHT30;72144;51.444;10.560;2023-08-24T08:45:41;20.96;61.72
82506;SHT30;72144;51.444;10.560;2023-08-24T08:48:06;20.99;61.89
82506;SHT30;72144;51.444;10.560;2023-08-24T08:50:34;21.04;61.93
82506;SHT30;72144;51.444;10.560;2023-08-24T08:53:00;21.08;62.00
82506;SHT30;72144;51.444;10.560;2023-08-24T08:55:26;21.12;61.84
82506;SHT30;72144;51.444;10.560;2023-08-24T08:57:56;21.15;62.30
82506;SHT30;72144;51.444;10.560;2023-08-24T09:00:23;21.19;61.78
82506;SHT30;72144;51.444;10.560;2023-08-24T09:02:51;21.21;62.13
82506;SHT30;72144;51.444;10.560;2023-08-24T09:05:17;21.26;61.81
82506;SHT30;72144;51.444;10.560;2023-08-24T09:07:43;21.29;61.88
82506;SHT30;72144;51.444;10.560;2023-08-24T09:10:09;21.35;61.90
82506;SHT30;72144;51.444;10.560;2023-08-24T09:12:35;21.38;61.74
82506;SHT30;72144;51.444;10.560;2023-08-24T09:15:07;21.42;62.59
82506;SHT30;72144;51.444;10.560;2023-08-24T09:17:33;21.43;61.72
82506;SHT30;72144;51.444;10.560;2023-08-24T09:20:00;21.47;61.90
82506;SHT30;72144;51.444;10.560;2023-08-24T09:22:26;21.51;61.75
82506;SHT30;72144;51.444;10.560;2023-08-24T09:24:51;21.56;61.61
82506;SHT30;72144;51.444;10.560;2023-08-24T09:27:18;21.61;61.66
82506;SHT30;72144;51.444;10.560;2023-08-24T09:29:51;21.68;62.12
82506;SHT30;72144;51.444;10.560;2023-08-24T09:32:24;21.71;62.14
82506;SHT30;72144;51.444;10.560;2023-08-24T09:34:52;21.78;61.48
82506;SHT30;72144;51.444;10.560;2023-08-24T09:37:18;21.85;61.70
82506;SHT30;72144;51.444;10.560;2023-08-24T09:39:44;21.90;61.62
82506;SHT30;72144;51.444;10.560;2023-08-24T09:42:10;21.97;61.56
82506;SHT30;72144;51.444;10.560;2023-08-24T09:44:35;22.05;61.42
82506;SHT30;72144;51.444;10.560;2023-08-24T09:47:01;22.09;61.46
82506;SHT30;72144;51.444;10.560;2023-08-24T09:49:28;22.13;61.67
82506;SHT30;72144;51.444;10.560;2023-08-24T09:51:56;22.22;61.83
82506;SHT30;72144;51.444;10.560;2023-08-24T09:54:28;22.30;61.85
82506;SHT30;72144;51.444;10.560;2023-08-24T09:56:58;22.36;61.74
82506;SHT30;72144;51.444;10.560;2023-08-24T09:59:26;22.42;61.66
82506;SHT30;72144;51.444;10.560;2023-08-24T10:01:54;22.47;61.53
82506;SHT30;72144;51.444;10.560;2023-08-24T10:04:25;22.53;61.50
82506;SHT30;72144;51.444;10.560;2023-08-24T10:07:01;22.61;61.75
82506;SHT30;72144;51.444;10.560;2023-08-24T10:09:33;22.65;61.57
82506;SHT30;72144;51.444;10.560;2023-08-24T10:12:02;22.67;61.49
82506;SHT30;72144;51.444;10.560;2023-08-24T10:14:33;22.75;61.38
82506;SHT30;72144;51.444;10.560;2023-08-24T10:17:00;22.81;61.09
82506;SHT30;72144;51.444;10.560;2023-08-24T10:19:27;22.84;61.04
82506;SHT30;72144;51.444;10.560;2023-08-24T10:21:53;22.92;61.05
82506;SHT30;72144;51.444;10.560;2023-08-24T10:24:22;22.97;61.12
82506;SHT30;72144;51.444;10.560;2023-08-24T10:26:48;23.04;61.10
82506;SHT30;72144;51.444;10.560;2023-08-24T10:29:16;23.06;61.14
82506;SHT30;72144;51.444;10.560;2023-08-24T10:31:43;23.16;61.15
82506;SHT30;72144;51.444;10.560;2023-08-24T10:34:09;23.25;61.02
82506;SHT30;72144;51.444;10.560;2023-08-24T10:36:37;23.33;60.97
82506;SHT30;72144;51.444;10.560;2023-08-24T10:39:03;23.42;61.10
82506;SHT30;72144;51.444;10.560;2023-08-24T10:41:46;23.51;61.05
82506;SHT30;72144;51.444;10.560;2023-08-24T10:44:20;23.67;61.38
82506;SHT30;72144;51.444;10.560;2023-08-24T10:49:33;23.95;61.02
82506;SHT30;72144;51.444;10.560;2023-08-24T10:52:16;24.12;60.70
82506;SHT30;72144;51.444;10.560;2023-08-24T10:54:43;24.23;61.02
82506;SHT30;72144;51.444;10.560;2023-08-24T10:57:18;24.40;61.00
82506;SHT30;72144;51.444;10.560;2023-08-24T10:59:45;24.57;60.77
82506;SHT30;72144;51.444;10.560;2023-08-24T11:02:18;24.74;60.65
82506;SHT30;72144;51.444;10.560;2023-08-24T11:10:26;25.27;60.46
82506;SHT30;72144;51.444;10.560;2023-08-24T11:15:31;25.66;60.31
82506;SHT30;72144;51.444;10.560;2023-08-24T11:20:45;25.99;59.83
82506;SHT30;72144;51.444;10.560;2023-08-24T11:23:11;26.16;59.71
82506;SHT30;72144;51.444;10.560;2023-08-24T11:25:36;26.33;59.30
82506;SHT30;72144;51.444;10.560;2023-08-24T11:28:03;26.50;59.15
82506;SHT30;72144;51.444;10.560;2023-08-24T11:30:30;26.63;59.08
82506;SHT30;72144;51.444;10.560;2023-08-24T11:32:55;26.80;58.88
82506;SHT30;72144;51.444;10.560;2023-08-24T11:35:21;26.96;58.54
82506;SHT30;72144;51.444;10.560;2023-08-24T11:37:55;27.11;58.22
82506;SHT30;72144;51.444;10.560;2023-08-24T11:40:21;27.26;57.97
82506;SHT30;72144;51.444;10.560;2023-08-24T11:42:53;27.46;56.94
82506;SHT30;72144;51.444;10.560;2023-08-24T11:45:18;27.58;57.47
82506;SHT30;72144;51.444;10.560;2023-08-24T11:47:44;27.71;57.27
82506;SHT30;72144;51.444;10.560;2023-08-24T11:50:09;27.88;57.09
82506;SHT30;72144;51.444;10.560;2023-08-24T11:52:44;28.04;56.70
82506;SHT30;72144;51.444;10.560;2023-08-24T11:55:10;28.20;56.64
82506;SHT30;72144;51.444;10.560;2023-08-24T11:57:36;28.33;56.42
82506;SHT30;72144;51.444;10.560;2023-08-24T12:00:05;28.49;56.28
82506;SHT30;72144;51.444;10.560;2023-08-24T12:02:31;28.63;55.96
82506;SHT30;72144;51.444;10.560;2023-08-24T12:04:58;28.78;55.79
82506;SHT30;72144;51.444;10.560;2023-08-24T12:07:24;28.91;55.55
82506;SHT30;72144;51.444;10.560;2023-08-24T12:09:50;29.04;55.16
82506;SHT30;72144;51.444;10.560;2023-08-24T12:12:18;29.16;54.93
82506;SHT30;72144;51.444;10.560;2023-08-24T12:14:48;29.37;54.54
82506;SHT30;72144;51.444;10.560;2023-08-24T12:17:15;29.46;54.70
82506;SHT30;72144;51.444;10.560;2023-08-24T12:19:42;29.61;54.58
82506;SHT30;72144;51.444;10.560;2023-08-24T12:22:15;29.74;54.06
82506;SHT30;72144;51.444;10.560;2023-08-24T12:24:47;29.88;53.82
82506;SHT30;72144;51.444;10.560;2023-08-24T12:27:23;30.02;53.66
82506;SHT30;72144;51.444;10.560;2023-08-24T12:29:49;30.13;53.66
82506;SHT30;72144;51.444;10.560;2023-08-24T12:32:14;30.29;53.45
82506;SHT30;72144;51.444;10.560;2023-08-24T12:34:45;30.43;53.31
82506;SHT30;72144;51.444;10.560;2023-08-24T12:37:10;30.53;53.08
82506;SHT30;72144;51.444;10.560;2023-08-24T12:39:36;30.61;52.84
82506;SHT30;72144;51.444;10.560;2023-08-24T12:42:02;30.71;52.64
82506;SHT30;72144;51.444;10.560;2023-08-24T12:44:28;30.77;52.28
82506;SHT30;72144;51.444;10.560;2023-08-24T12:46:53;30.84;52.18
82506;SHT30;72144;51.444;10.560;2023-08-24T12:49:19;30.94;51.85
82506;SHT30;72144;51.444;10.560;2023-08-24T12:51:44;30.99;51.84
82506;SHT30;72144;51.444;10.560;2023-08-24T12:54:09;31.08;51.79
82506;SHT30;72144;51.444;10.560;2023-08-24T12:56:35;31.18;51.60
82506;SHT30;72144;51.444;10.560;2023-08-24T12:59:00;31.25;51.39
82506;SHT30;72144;51.444;10.560;2023-08-24T13:01:26;31.30;51.14
82506;SHT30;72144;51.444;10.560;2023-08-24T13:03:52;31.40;51.16
82506;SHT30;72144;51.444;10.560;2023-08-24T13:06:17;31.50;50.81
82506;SHT30;72144;51.444;10.560;2023-08-24T13:08:43;31.57;50.79
82506;SHT30;72144;51.444;10.560;2023-08-24T13:11:09;31.63;50.39
82506;SHT30;72144;51.444;10.560;2023-08-24T13:13:36;31.69;50.29
82506;SHT30;72144;51.444;10.560;2023-08-24T13:16:02;31.77;50.11
82506;SHT30;72144;51.444;10.560;2023-08-24T13:18:27;31.82;50.02
82506;SHT30;72144;51.444;10.560;2023-08-24T13:20:53;31.91;49.88
82506;SHT30;72144;51.444;10.560;2023-08-24T13:23:18;31.98;49.70
82506;SHT30;72144;51.444;10.560;2023-08-24T13:25:43;32.05;49.43
82506;SHT30;72144;51.444;10.560;2023-08-24T13:28:09;32.15;49.59
82506;SHT30;72144;51.444;10.560;2023-08-24T13:30:34;32.23;49.68
82506;SHT30;72144;51.444;10.560;2023-08-24T13:33:00;32.33;49.37
82506;SHT30;72144;51.444;10.560;2023-08-24T13:35:25;32.40;49.21
82506;SHT30;72144;51.444;10.560;2023-08-24T13:37:51;32.50;49.04
82506;SHT30;72144;51.444;10.560;2023-08-24T13:40:16;32.57;48.87
82506;SHT30;72144;51.444;10.560;2023-08-24T13:42:42;32.66;48.40
82506;SHT30;72144;51.444;10.560;2023-08-24T13:45:07;32.73;48.33
82506;SHT30;72144;51.444;10.560;2023-08-24T13:47:33;32.80;48.32
82506;SHT30;72144;51.444;10.560;2023-08-24T13:49:58;32.83;47.81
82506;SHT30;72144;51.444;10.560;2023-08-24T13:52:23;32.91;47.95
82506;SHT30;72144;51.444;10.560;2023-08-24T13:54:49;32.95;47.77
82506;SHT30;72144;51.444;10.560;2023-08-24T13:57:14;33.02;47.21
82506;SHT30;72144;51.444;10.560;2023-08-24T13:59:40;33.05;46.83
82506;SHT30;72144;51.444;10.560;2023-08-24T14:02:06;33.09;47.27
82506;SHT30;72144;51.444;10.560;2023-08-24T14:04:32;33.11;46.50
82506;SHT30;72144;51.444;10.560;2023-08-24T14:06:57;33.14;47.24
82506;SHT30;72144;51.444;10.560;2023-08-24T14:09:22;33.15;46.05
82506;SHT30;72144;51.444;10.560;2023-08-24T14:11:48;33.17;45.94
82506;SHT30;72144;51.444;10.560;2023-08-24T14:14:14;33.19;45.96
82506;SHT30;72144;51.444;10.560;2023-08-24T14:16:39;33.18;45.95
82506;SHT30;72144;51.444;10.560;2023-08-24T14:19:04;33.18;46.74
82506;SHT30;72144;51.444;10.560;2023-08-24T14:21:30;33.21;46.26
82506;SHT30;72144;51.444;10.560;2023-08-24T14:23:56;33.19;46.44
82506;SHT30;72144;51.444;10.560;2023-08-24T14:26:21;33.21;46.20
82506;SHT30;72144;51.444;10.560;2023-08-24T14:28:57;33.21;46.03
82506;SHT30;72144;51.444;10.560;2023-08-24T14:31:24;33.22;45.85
82506;SHT30;72144;51.444;10.560;2023-08-24T14:33:51;33.22;45.51
82506;SHT30;72144;51.444;10.560;2023-08-24T14:36:16;33.22;46.50
82506;SHT30;72144;51.444;10.560;2023-08-24T14:38:42;33.25;45.58
82506;SHT30;72144;51.444;10.560;2023-08-24T14:41:10;33.28;46.01
82506;SHT30;72144;51.444;10.560;2023-08-24T14:43:36;33.30;43.66
82506;SHT30;72144;51.444;10.560;2023-08-24T14:46:01;33.32;44.73
82506;SHT30;72144;51.444;10.560;2023-08-24T14:48:27;33.35;43.61
82506;SHT30;72144;51.444;10.560;2023-08-24T14:50:52;33.41;43.55
82506;SHT30;72144;51.444;10.560;2023-08-24T14:53:17;33.37;44.07
82506;SHT30;72144;51.444;10.560;2023-08-24T14:55:43;33.42;43.05
82506;SHT30;72144;51.444;10.560;2023-08-24T14:58:08;33.47;43.09
82506;SHT30;72144;51.444;10.560;2023-08-24T15:00:34;33.50;45.18
82506;SHT30;72144;51.444;10.560;2023-08-24T15:02:59;33.54;43.02
82506;SHT30;72144;51.444;10.560;2023-08-24T15:05:25;33.57;44.53
82506;SHT30;72144;51.444;10.560;2023-08-24T15:07:50;33.59;43.61
82506;SHT30;72144;51.444;10.560;2023-08-24T15:10:16;33.60;43.34
82506;SHT30;72144;51.444;10.560;2023-08-24T15:12:47;33.62;42.57
82506;SHT30;72144;51.444;10.560;2023-08-24T15:15:13;33.67;43.20
82506;SHT30;72144;51.444;10.560;2023-08-24T15:17:44;33.69;41.98
82506;SHT30;72144;51.444;10.560;2023-08-24T15:20:10;33.71;43.12
82506;SHT30;72144;51.444;10.560;2023-08-24T15:22:38;33.77;42.67
82506;SHT30;72144;51.444;10.560;2023-08-24T15:25:04;33.77;42.60
82506;SHT30;72144;51.444;10.560;2023-08-24T15:27:29;33.78;42.88
82506;SHT30;72144;51.444;10.560;2023-08-24T15:29:55;33.81;43.17